Terminal Aerodrome Forecast
Issued by NWS Wilmington, OH

Current Version | Previous Version | Graphics & Text | Print | Product List | Glossary On
Versions: 1 2 3 4 5 6 7 8 9 10 11 12 13 14 15 16 17 18 19 20
304
FTUS41 KILN 292106 AAA
TAFCVG
TAF AMD
KCVG 292106Z 2921/3024 07009G17KT P6SM SCT250
     FM300000 08009KT P6SM SCT250
     FM300900 10008KT P6SM BKN025
     FM301200 11008KT P6SM BKN035
     FM301500 16012G20KT P6SM BKN040
     FM301800 20014G24KT P6SM BKN040=

USA.gov is the U.S. government's official web portal to all federal, state and local government web resources and services.